ADDS METAR Data INFO
IDs: Format: Raw Decoded Include TAF

Data at: 0300 UTC 21 Oct 2017

KCEC 210256Z AUTO 15007KT 8SM OVC034 11/08 A3013 RMK AO2 SLP205 T01060083 50002
KCEC 210156Z AUTO 16009KT 10SM BKN042 BKN070 OVC100 11/09 A3014 RMK AO2 SLP206 T01060089
KCEC 210056Z AUTO 16009KT 8SM SCT022 12/10 A3013 RMK AO2 SLP203 T01170100
KCEC 202356Z AUTO 16010KT 10SM CLR 12/09 A3013 RMK AO2 SLP203 60000 T01170094 10133 20111 51009
KCEC 202256Z AUTO 19010KT 10SM FEW075 13/10 A3012 RMK AO2 SLP200 T01330100
KCEC 202234Z AUTO 17011KT 10SM SCT029 13/10 A3012 RMK AO2 T01280100
KCEC 202206Z AUTO 16011KT 9SM BKN029 13/10 A3011 RMK AO2 T01280100
KCEC 202156Z AUTO 16009KT 9SM SCT031 12/11 A3011 RMK AO2 SLP197 T01220106
KCEC 202140Z AUTO 18009KT 10SM SCT027 13/11 A3011 RMK AO2 T01330106
KCEC 202056Z AUTO 16010KT 7SM BKN019 OVC060 13/10 A3010 RMK AO2 SLP193 60000 T01280100 51013
KCEC 201956Z AUTO 17010KT 9SM SCT045 SCT050 BKN070 12/09 A3010 RMK AO2 SLP192 T01220094
KCEC 201856Z AUTO 17014KT 9SM FEW036 BKN070 OVC090 12/09 A3007 RMK AO2 RAB13E23 SLP185 P0000 T01220094
KCEC 201756Z AUTO 17010KT 8SM FEW042 BKN060 OVC080 11/09 A3006 RMK AO2 SLP180 60001 T01110089 10117 20100 51027
KCEC 201656Z AUTO 16015KT 8SM SCT060 BKN070 10/08 A3004 RMK AO2 SLP172 T01000083
KCEC 201556Z AUTO 17010KT 8SM BKN043 OVC050 10/09 A3001 RMK AO2 SLP164 T01000089
KCEC 201539Z AUTO 17010KT 7SM FEW008 BKN050 OVC070 10/09 A3000 RMK AO2 T01000089
KCEC 201456Z AUTO 18012KT 6SM BR OVC055 10/09 A2998 RMK AO2 SLP153 60001 T01000094 53020
KCEC 201356Z AUTO 18011KT 10SM BKN055 OVC075 10/09 A2996 RMK AO2 RAE32 SLP145 P0001 T01000094
KCEC 201256Z AUTO 18015KT 9SM -RA FEW018 BKN043 OVC060 10/09 A2994 RMK AO2 SLP140 P0000 T01000089
KCEC 201156Z AUTO 18012KT 8SM -RA BKN044 OVC060 10/09 A2992 RMK AO2 RAB56 SLP133 P0000 60004 70125 T01000089 10106 20094 53027
KCEC 201056Z AUTO 17010KT 10SM FEW012 BKN055 OVC070 10/09 A2990 RMK AO2 SLP125 T01000089
KCEC 201005Z AUTO 16008KT 9SM FEW029 OVC046 10/09 A2987 RMK AO2 T01000094
KCEC 200956Z AUTO 17008KT 9SM FEW020 BKN029 OVC046 10/09 A2986 RMK AO2 SLP114 T01000094
KCEC 200933Z AUTO 16008KT 7SM FEW010 FEW021 BKN029 10/09 A2986 RMK AO2 T01000094
KCEC 200856Z AUTO 16010KT 7SM BKN065 10/09 A2984 RMK AO2 SLP106 60004 T01000094 53003
KCEC 200756Z AUTO 19010KT 9SM FEW016 SCT023 BKN055 10/09 A2983 RMK AO2 RAB02E49 SLP103 P0004 T01000094 401560089
KCEC 200753Z AUTO 18010KT 10SM FEW016 SCT020 BKN031 10/09 A2983 RMK AO2 RAB02E49 P0004
KCEC 200740Z AUTO 17011KT 8SM -RA FEW017 BKN026 OVC046 10/09 A2983 RMK AO2 RAB02 P0004 T01000094
KCEC 200703Z AUTO 17011KT 9SM -RA FEW027 BKN033 OVC070 11/09 A2983 RMK AO2 RAB02 P0000 T01060089
KCEC 200656Z AUTO 17010KT 10SM BKN029 BKN037 OVC110 10/09 A2984 RMK AO2 SLP104 T01000089
KCEC 200556Z AUTO 16007KT 9SM SCT025 BKN034 09/09 A2983 RMK AO2 RAE15 SLP102 P0001 60050 T00940089 10111 20089 51021
KCEC 200456Z AUTO 14003KT 4SM RA BR FEW027 SCT032 OVC039 09/08 A2981 RMK AO2 SLP096 P0007 T00940083
KCEC 200356Z AUTO 14007KT 10SM -RA FEW035 BKN055 OVC070 09/09 A2979 RMK AO2 SLP089 P0009 T00940089
KCEC 200256Z AUTO 12008KT 10SM -RA FEW040 OVC055 10/09 A2977 RMK AO2 SLP081 P0008 60033 T01000094 58004
KCEC 200204Z AUTO 12006KT 4SM RA BR FEW015 BKN038 OVC045 10/10 A2980 RMK AO2 P0002 T01000100
KCEC 200156Z AUTO 10006KT 5SM RA BR SCT015 BKN024 OVC037 10/10 A2979 RMK AO2 SLP090 P0016 T01000100
KCEC 200056Z AUTO 12006KT 5SM -RA BR OVC055 11/11 A2978 RMK AO2 SLP085 P0009 T01060106
KCEC 200005Z AUTO 26010KT 5SM -RA BR FEW008 BKN036 OVC044 11/11 A2978 RMK AO2 P0001 T01110111
KCEC 192356Z AUTO 27013KT 4SM RA BR SCT006 BKN028 OVC036 11/11 A2978 RMK AO2 SLP085 P0018 60071 T01110111 10150 20111 53004
KCEC 192347Z AUTO 26015G22KT 4SM RA BR SCT004 BKN010 OVC028 11/11 A2978 RMK AO2 P0017 T01110111
KCEC 192342Z AUTO 25017G22KT 3SM RA BR BKN004 BKN008 OVC039 12/12 A2978 RMK AO2 P0016 T01170117
KCEC 192315Z AUTO 24011KT 2 1/2SM RA BR BKN003 OVC025 12/12 A2976 RMK AO2 P0008 T01170117
KCEC 192308Z AUTO 23011KT 1 3/4SM +RA BR BKN003 BKN025 12/12 A2976 RMK AO2 P0005 T01170117
KCEC 192256Z AUTO 23012KT 1 3/4SM +RA BR SCT003 BKN027 OVC044 12/12 A2976 RMK AO2 SLP079 P0019 T01170117
KCEC 192246Z AUTO 22011KT 2 1/2SM RA BR BKN003 BKN027 OVC044 12/12 A2977 RMK AO2 P0014 T01170117
KCEC 192156Z AUTO 21014G22KT 2SM RA BR FEW003 SCT012 OVC018 12/12 A2977 RMK AO2 PK WND 20033/2104 SLP082 P0026 T01170117
KCEC 192146Z AUTO 21017G25KT 1 1/2SM +RA BR SCT003 BKN016 OVC022 12/12 A2977 RMK AO2 PK WND 20033/2104 P0023 T01170117
KCEC 192101Z AUTO 20020G29KT 1 1/4SM -RA BR FEW005 OVC023 12/12 A2977 RMK AO2 PK WND 22029/2058 P0002 T01220117
KCEC 192056Z AUTO 21020G29KT 1 1/2SM -RA BR OVC024 12/12 A2977 RMK AO2 PK WND 20029/2053 SLP081 P0006 60008 T01220117 55003
KCEC 192054Z AUTO 20023G29KT 1 1/2SM -RA BR OVC024 12/12 A2977 RMK AO2 PK WND 20029/2053 P0006
KCEC 192032Z AUTO 20019G28KT 2SM -RA BR OVC028 12/11 A2977 RMK AO2 PK WND 19028/2023 P0003 T01170111
KCEC 191956Z AUTO 17016KT 10SM -RA OVC029 13/11 A2978 RMK AO2 SLP084 P0001 T01330106
KCEC 191856Z AUTO 17015G22KT 7SM -RA OVC030 14/11 A2980 RMK AO2 PK WND 16027/1846 SLP093 P0001 T01390111
KCEC 191756Z AUTO 16021G27KT 10SM -RA FEW021 BKN039 OVC050 15/11 A2980 RMK AO2 PK WND 15032/1713 RAB37 SLP093 P0000 60000 T01500106 10156 20117 58009
KCEC 191656Z AUTO 16021KT 10SM OVC038 15/09 A2982 RMK AO2 PK WND 15029/1636 SLP097 T01500094
KCEC 191556Z AUTO 16020G28KT 10SM OVC040 14/09 A2982 RMK AO2 PK WND 15030/1530 SLP099 T01440094